Blossom, Texas
Current Conditions -  °F | °C
As of 10:15 PM on Wednesday 22 Oct 2014 (Local Time) from KPRX Reporting Station
Clear Clear  
Wind Chill: 63°   Ceiling: Unl
Heat Index: 63°   Visibility: 3mi
Dew Point: 48°   Wind: 9mph
Humidity: 59%   Direction: 110°ESE
Pressure: 30.16"   Gusts: NA
Location:  33.66°N, 95.39°W
Report Text: KPRX 230315Z 11008KT 3SM CLR 17/09 A3016 RMK AO1
Loading
Personal Weather Stations






























Interactive Weather Map
Tropical Storm Tracking
New forecast layout! Learn more

10-Day Weather Forecast

Advertisements
Track Severe Weather on mobile